Terminal Aerodrome Forecast
Issued by NWS

Home | Current Version | Previous Version | Graphics & Text | Print | Product List | Glossary On
Versions: 1 2 3 4 5 6 7 8 9 10 11 12 13 14 15 16
000
FTUS43 KGRB 281627 AAC
TAFATW
TAF AMD
KATW 281627Z 2816/2912 25005KT P6SM BKN009 OVC100
     FM281800 25008KT P6SM VCSH BKN040 BKN100
     FM290200 25007KT P6SM SCT040=

USA.gov is the U.S. government's official web portal to all federal, state and local government web resources and services.